Terminal Aerodrome Forecast
Issued by NWS

Home | Current Version | Previous Version | Text Only | Print | Product List | Glossary On
Versions: 1 2 3 4 5 6 7 8 9 10 11 12 13 14 15 16 17 18
369
FTUS44 KLIX 182348
TAFMCB
TAF
KMCB 182348Z 1900/1924 15008KT P6SM VCSH SCT025 OVC110
     FM190300 16006KT 5SM BR OVC020
      TEMPO 1903/1907 2SM -TSRA BR OVC003CB
     FM190900 16006KT 3SM BR VCSH OVC003
     FM191100 16007KT 3SM -SHRA BR OVC008
      TEMPO 1911/1914 2SM TSRA OVC006CB
     FM191500 19011KT 3SM -SHRA VCTS OVC020CB=

USA.gov is the U.S. government's official web portal to all federal, state and local government web resources and services.